sensor_id;sensor_type;location;lat;lon;timestamp;temperature;humidity
1800;DHT22;919;48.274;12.292;2023-04-24T00:02:24;11.80;99.90
1800;DHT22;919;48.274;12.292;2023-04-24T00:04:51;11.70;99.90
1800;DHT22;919;48.274;12.292;2023-04-24T00:07:19;11.60;99.90
1800;DHT22;919;48.274;12.292;2023-04-24T00:09:46;11.60;99.90
1800;DHT22;919;48.274;12.292;2023-04-24T00:12:13;11.50;99.90
1800;DHT22;919;48.274;12.292;2023-04-24T00:14:40;11.60;99.90
1800;DHT22;919;48.274;12.292;2023-04-24T00:17:07;11.50;99.90
1800;DHT22;919;48.274;12.292;2023-04-24T00:19:33;11.50;99.90
1800;DHT22;919;48.274;12.292;2023-04-24T00:22:00;11.40;99.90
1800;DHT22;919;48.274;12.292;2023-04-24T00:24:28;11.50;99.90
1800;DHT22;919;48.274;12.292;2023-04-24T00:26:55;11.40;99.90
1800;DHT22;919;48.274;12.292;2023-04-24T00:29:22;11.40;99.90
1800;DHT22;919;48.274;12.292;2023-04-24T00:31:48;11.30;99.90
1800;DHT22;919;48.274;12.292;2023-04-24T00:34:15;11.30;99.90
1800;DHT22;919;48.274;12.292;2023-04-24T00:36:42;11.40;99.90
1800;DHT22;919;48.274;12.292;2023-04-24T00:39:08;11.40;99.90
1800;DHT22;919;48.274;12.292;2023-04-24T00:41:36;11.40;99.90
1800;DHT22;919;48.274;12.292;2023-04-24T00:44:03;11.30;99.90
1800;DHT22;919;48.274;12.292;2023-04-24T00:46:30;11.40;99.90
1800;DHT22;919;48.274;12.292;2023-04-24T00:48:59;11.30;99.90
1800;DHT22;919;48.274;12.292;2023-04-24T00:51:26;11.30;99.90
1800;DHT22;919;48.274;12.292;2023-04-24T00:53:52;11.40;99.90
1800;DHT22;919;48.274;12.292;2023-04-24T00:56:19;11.40;99.90
1800;DHT22;919;48.274;12.292;2023-04-24T00:58:47;11.30;99.90
1800;DHT22;919;48.274;12.292;2023-04-24T01:01:14;11.30;99.90
1800;DHT22;919;48.274;12.292;2023-04-24T01:03:41;11.30;99.90
1800;DHT22;919;48.274;12.292;2023-04-24T01:06:09;11.30;99.90
1800;DHT22;919;48.274;12.292;2023-04-24T01:08:37;11.30;99.90
1800;DHT22;919;48.274;12.292;2023-04-24T01:11:05;11.30;99.90
1800;DHT22;919;48.274;12.292;2023-04-24T01:13:32;11.30;99.90
1800;DHT22;919;48.274;12.292;2023-04-24T01:16:01;11.20;99.90
1800;DHT22;919;48.274;12.292;2023-04-24T01:18:28;11.30;99.90
1800;DHT22;919;48.274;12.292;2023-04-24T01:20:57;11.30;99.90
1800;DHT22;919;48.274;12.292;2023-04-24T01:23:25;11.20;99.90
1800;DHT22;919;48.274;12.292;2023-04-24T01:25:52;11.20;99.90
1800;DHT22;919;48.274;12.292;2023-04-24T01:28:19;11.20;99.90
1800;DHT22;919;48.274;12.292;2023-04-24T01:30:46;11.20;99.90
1800;DHT22;919;48.274;12.292;2023-04-24T01:33:13;11.20;99.90
1800;DHT22;919;48.274;12.292;2023-04-24T01:35:40;11.20;99.90
1800;DHT22;919;48.274;12.292;2023-04-24T01:38:07;11.20;99.90
1800;DHT22;919;48.274;12.292;2023-04-24T01:40:35;11.20;99.90
1800;DHT22;919;48.274;12.292;2023-04-24T01:43:02;11.10;99.90
1800;DHT22;919;48.274;12.292;2023-04-24T01:45:28;11.20;99.90
1800;DHT22;919;48.274;12.292;2023-04-24T01:47:55;11.20;99.90
1800;DHT22;919;48.274;12.292;2023-04-24T01:50:22;11.20;99.90
1800;DHT22;919;48.274;12.292;2023-04-24T01:52:49;11.20;99.90
1800;DHT22;919;48.274;12.292;2023-04-24T01:55:16;11.20;99.90
1800;DHT22;919;48.274;12.292;2023-04-24T01:57:44;11.20;99.90
1800;DHT22;919;48.274;12.292;2023-04-24T02:00:11;11.20;99.90
1800;DHT22;919;48.274;12.292;2023-04-24T02:02:39;11.10;99.90
1800;DHT22;919;48.274;12.292;2023-04-24T02:05:06;11.10;99.90
1800;DHT22;919;48.274;12.292;2023-04-24T02:07:33;11.10;99.90
1800;DHT22;919;48.274;12.292;2023-04-24T02:10:00;11.00;99.90
1800;DHT22;919;48.274;12.292;2023-04-24T02:12:27;11.00;99.90
1800;DHT22;919;48.274;12.292;2023-04-24T02:14:55;11.00;99.90
1800;DHT22;919;48.274;12.292;2023-04-24T02:17:22;11.00;99.90
1800;DHT22;919;48.274;12.292;2023-04-24T02:19:48;11.00;99.90
1800;DHT22;919;48.274;12.292;2023-04-24T02:22:15;11.00;99.90
1800;DHT22;919;48.274;12.292;2023-04-24T02:24:42;11.00;99.90
1800;DHT22;919;48.274;12.292;2023-04-24T02:27:08;10.90;99.90
1800;DHT22;919;48.274;12.292;2023-04-24T02:29:35;10.90;99.90
1800;DHT22;919;48.274;12.292;2023-04-24T02:32:03;10.90;99.90
1800;DHT22;919;48.274;12.292;2023-04-24T02:34:30;10.90;99.90
1800;DHT22;919;48.274;12.292;2023-04-24T02:36:57;10.90;99.90
1800;DHT22;919;48.274;12.292;2023-04-24T02:39:23;10.90;99.90
1800;DHT22;919;48.274;12.292;2023-04-24T02:41:50;10.90;99.90
1800;DHT22;919;48.274;12.292;2023-04-24T02:44:17;10.80;99.90
1800;DHT22;919;48.274;12.292;2023-04-24T02:46:43;10.80;99.90
1800;DHT22;919;48.274;12.292;2023-04-24T02:49:11;10.80;99.90
1800;DHT22;919;48.274;12.292;2023-04-24T02:51:38;10.80;99.90
1800;DHT22;919;48.274;12.292;2023-04-24T02:54:06;10.80;99.90
1800;DHT22;919;48.274;12.292;2023-04-24T02:56:33;10.70;99.90
1800;DHT22;919;48.274;12.292;2023-04-24T02:59:00;10.70;99.90
1800;DHT22;919;48.274;12.292;2023-04-24T03:01:27;10.70;99.90
1800;DHT22;919;48.274;12.292;2023-04-24T03:03:53;10.70;99.90
1800;DHT22;919;48.274;12.292;2023-04-24T03:06:21;10.60;99.90
1800;DHT22;919;48.274;12.292;2023-04-24T03:08:48;10.60;99.90
1800;DHT22;919;48.274;12.292;2023-04-24T03:11:15;10.60;99.90
1800;DHT22;919;48.274;12.292;2023-04-24T03:13:42;10.60;99.90
1800;DHT22;919;48.274;12.292;2023-04-24T03:16:08;10.60;99.90
1800;DHT22;919;48.274;12.292;2023-04-24T03:18:35;10.60;99.90
1800;DHT22;919;48.274;12.292;2023-04-24T03:21:02;10.60;99.90
1800;DHT22;919;48.274;12.292;2023-04-24T03:23:30;10.60;99.90
1800;DHT22;919;48.274;12.292;2023-04-24T03:25:57;10.50;99.90
1800;DHT22;919;48.274;12.292;2023-04-24T03:28:24;10.50;99.90
1800;DHT22;919;48.274;12.292;2023-04-24T03:30:51;10.50;99.90
1800;DHT22;919;48.274;12.292;2023-04-24T03:33:17;10.50;99.90
1800;DHT22;919;48.274;12.292;2023-04-24T03:35:44;10.50;99.90
1800;DHT22;919;48.274;12.292;2023-04-24T03:38:11;10.40;99.90
1800;DHT22;919;48.274;12.292;2023-04-24T03:40:39;10.40;99.90
1800;DHT22;919;48.274;12.292;2023-04-24T03:43:05;10.30;99.90
1800;DHT22;919;48.274;12.292;2023-04-24T03:45:32;10.30;99.90
1800;DHT22;919;48.274;12.292;2023-04-24T03:47:59;10.30;99.90
1800;DHT22;919;48.274;12.292;2023-04-24T03:50:25;10.30;99.90
1800;DHT22;919;48.274;12.292;2023-04-24T03:52:54;10.30;99.90
1800;DHT22;919;48.274;12.292;2023-04-24T03:55:21;10.30;99.90
1800;DHT22;919;48.274;12.292;2023-04-24T03:57:49;10.20;99.90
1800;DHT22;919;48.274;12.292;2023-04-24T04:00:16;10.20;99.90
1800;DHT22;919;48.274;12.292;2023-04-24T04:02:43;10.20;99.90
1800;DHT22;919;48.274;12.292;2023-04-24T04:05:10;10.10;99.90
1800;DHT22;919;48.274;12.292;2023-04-24T04:07:37;10.10;99.90
1800;DHT22;919;48.274;12.292;2023-04-24T04:10:04;10.10;99.90
1800;DHT22;919;48.274;12.292;2023-04-24T04:12:32;10.10;99.90
1800;DHT22;919;48.274;12.292;2023-04-24T04:15:00;10.10;99.90
1800;DHT22;919;48.274;12.292;2023-04-24T04:17:27;10.10;99.90
1800;DHT22;919;48.274;12.292;2023-04-24T04:19:53;10.10;99.90
1800;DHT22;919;48.274;12.292;2023-04-24T04:22:20;10.10;99.90
1800;DHT22;919;48.274;12.292;2023-04-24T04:24:47;10.00;99.90
1800;DHT22;919;48.274;12.292;2023-04-24T04:27:13;10.00;99.90
1800;DHT22;919;48.274;12.292;2023-04-24T04:29:41;10.00;99.90
1800;DHT22;919;48.274;12.292;2023-04-24T04:32:10;10.00;99.90
1800;DHT22;919;48.274;12.292;2023-04-24T04:34:37;10.00;99.90
1800;DHT22;919;48.274;12.292;2023-04-24T04:37:05;10.00;99.90
1800;DHT22;919;48.274;12.292;2023-04-24T04:39:31;10.00;99.90
1800;DHT22;919;48.274;12.292;2023-04-24T04:41:58;10.00;99.90
1800;DHT22;919;48.274;12.292;2023-04-24T04:44:25;10.00;99.90
1800;DHT22;919;48.274;12.292;2023-04-24T04:46:54;10.00;99.90
1800;DHT22;919;48.274;12.292;2023-04-24T04:49:23;10.10;99.90
1800;DHT22;919;48.274;12.292;2023-04-24T04:51:50;10.00;99.90
1800;DHT22;919;48.274;12.292;2023-04-24T04:54:17;10.00;99.90
1800;DHT22;919;48.274;12.292;2023-04-24T04:56:43;10.00;99.90
1800;DHT22;919;48.274;12.292;2023-04-24T04:59:10;10.10;99.90
1800;DHT22;919;48.274;12.292;2023-04-24T05:01:38;10.10;99.90
1800;DHT22;919;48.274;12.292;2023-04-24T05:04:04;10.10;99.90
1800;DHT22;919;48.274;12.292;2023-04-24T05:06:33;10.10;99.90
1800;DHT22;919;48.274;12.292;2023-04-24T05:08:59;10.10;99.90
1800;DHT22;919;48.274;12.292;2023-04-24T05:11:26;10.10;99.90
1800;DHT22;919;48.274;12.292;2023-04-24T05:13:53;10.10;99.90
1800;DHT22;919;48.274;12.292;2023-04-24T05:16:19;10.20;99.90
1800;DHT22;919;48.274;12.292;2023-04-24T05:18:46;10.20;99.90
1800;DHT22;919;48.274;12.292;2023-04-24T05:21:13;10.20;99.90
1800;DHT22;919;48.274;12.292;2023-04-24T05:23:41;10.20;99.90
1800;DHT22;919;48.274;12.292;2023-04-24T05:26:08;10.20;99.90
1800;DHT22;919;48.274;12.292;2023-04-24T05:28:35;10.20;99.90
1800;DHT22;919;48.274;12.292;2023-04-24T05:31:02;10.30;99.90
1800;DHT22;919;48.274;12.292;2023-04-24T05:33:29;10.30;99.90
1800;DHT22;919;48.274;12.292;2023-04-24T05:35:56;10.30;99.90
1800;DHT22;919;48.274;12.292;2023-04-24T05:38:23;10.30;99.90
1800;DHT22;919;48.274;12.292;2023-04-24T05:40:51;10.30;99.90
1800;DHT22;919;48.274;12.292;2023-04-24T05:43:17;10.40;99.90
1800;DHT22;919;48.274;12.292;2023-04-24T05:45:44;10.40;99.90
1800;DHT22;919;48.274;12.292;2023-04-24T05:48:11;10.40;99.90
1800;DHT22;919;48.274;12.292;2023-04-24T05:50:37;10.50;99.90
1800;DHT22;919;48.274;12.292;2023-04-24T05:53:04;10.50;99.90
1800;DHT22;919;48.274;12.292;2023-04-24T05:55:32;10.50;99.90
1800;DHT22;919;48.274;12.292;2023-04-24T05:58:00;10.50;99.90
1800;DHT22;919;48.274;12.292;2023-04-24T06:00:27;10.50;99.90
1800;DHT22;919;48.274;12.292;2023-04-24T06:02:54;10.50;99.90
1800;DHT22;919;48.274;12.292;2023-04-24T06:05:21;10.60;99.90
1800;DHT22;919;48.274;12.292;2023-04-24T06:07:48;10.60;99.90
1800;DHT22;919;48.274;12.292;2023-04-24T06:10:15;10.50;99.90
1800;DHT22;919;48.274;12.292;2023-04-24T06:12:42;10.60;99.90
1800;DHT22;919;48.274;12.292;2023-04-24T06:15:10;10.50;99.90
1800;DHT22;919;48.274;12.292;2023-04-24T06:17:38;10.60;99.90
1800;DHT22;919;48.274;12.292;2023-04-24T06:20:05;10.60;99.90
1800;DHT22;919;48.274;12.292;2023-04-24T06:22:33;10.50;99.90
1800;DHT22;919;48.274;12.292;2023-04-24T06:25:00;10.60;99.90
1800;DHT22;919;48.274;12.292;2023-04-24T06:27:27;10.60;99.90
1800;DHT22;919;48.274;12.292;2023-04-24T06:29:54;10.60;99.90
1800;DHT22;919;48.274;12.292;2023-04-24T06:32:22;10.70;99.90
1800;DHT22;919;48.274;12.292;2023-04-24T06:34:51;10.80;99.90
1800;DHT22;919;48.274;12.292;2023-04-24T06:37:18;10.70;99.90
1800;DHT22;919;48.274;12.292;2023-04-24T06:39:45;10.80;99.90
1800;DHT22;919;48.274;12.292;2023-04-24T06:42:12;10.90;99.90
1800;DHT22;919;48.274;12.292;2023-04-24T06:44:39;10.90;99.90
1800;DHT22;919;48.274;12.292;2023-04-24T06:47:07;11.00;99.90
1800;DHT22;919;48.274;12.292;2023-04-24T06:49:36;11.00;99.90
1800;DHT22;919;48.274;12.292;2023-04-24T06:52:03;10.90;99.90
1800;DHT22;919;48.274;12.292;2023-04-24T06:54:30;11.00;99.90
1800;DHT22;919;48.274;12.292;2023-04-24T06:56:57;11.10;99.90
1800;DHT22;919;48.274;12.292;2023-04-24T06:59:24;11.10;99.90
1800;DHT22;919;48.274;12.292;2023-04-24T07:01:51;11.20;99.90
1800;DHT22;919;48.274;12.292;2023-04-24T07:04:17;11.20;99.90
1800;DHT22;919;48.274;12.292;2023-04-24T07:06:46;11.30;99.90
1800;DHT22;919;48.274;12.292;2023-04-24T07:09:14;11.40;99.90
1800;DHT22;919;48.274;12.292;2023-04-24T07:11:43;11.50;99.90
1800;DHT22;919;48.274;12.292;2023-04-24T07:14:10;11.50;99.90
1800;DHT22;919;48.274;12.292;2023-04-24T07:16:37;11.60;99.90
1800;DHT22;919;48.274;12.292;2023-04-24T07:19:04;11.80;99.90
1800;DHT22;919;48.274;12.292;2023-04-24T07:21:31;11.80;99.90
1800;DHT22;919;48.274;12.292;2023-04-24T07:23:59;11.90;99.90
1800;DHT22;919;48.274;12.292;2023-04-24T07:26:26;12.00;99.90
1800;DHT22;919;48.274;12.292;2023-04-24T07:28:53;12.00;99.90
1800;DHT22;919;48.274;12.292;2023-04-24T07:31:20;12.00;99.90
1800;DHT22;919;48.274;12.292;2023-04-24T07:33:47;12.10;99.90
1800;DHT22;919;48.274;12.292;2023-04-24T07:36:15;11.90;99.90
1800;DHT22;919;48.274;12.292;2023-04-24T07:38:44;11.80;99.90
1800;DHT22;919;48.274;12.292;2023-04-24T07:41:12;11.80;99.90
1800;DHT22;919;48.274;12.292;2023-04-24T07:43:39;11.90;99.90
1800;DHT22;919;48.274;12.292;2023-04-24T07:46:06;11.70;99.90
1800;DHT22;919;48.274;12.292;2023-04-24T07:48:33;11.70;99.90
1800;DHT22;919;48.274;12.292;2023-04-24T07:51:00;11.80;99.90
1800;DHT22;919;48.274;12.292;2023-04-24T07:53:26;11.80;99.90
1800;DHT22;919;48.274;12.292;2023-04-24T07:55:54;11.90;99.90
1800;DHT22;919;48.274;12.292;2023-04-24T07:58:22;11.90;99.90
1800;DHT22;919;48.274;12.292;2023-04-24T08:00:49;11.90;99.90
1800;DHT22;919;48.274;12.292;2023-04-24T08:03:15;12.00;99.90
1800;DHT22;919;48.274;12.292;2023-04-24T08:05:45;11.90;99.90
1800;DHT22;919;48.274;12.292;2023-04-24T08:08:11;12.00;99.90
1800;DHT22;919;48.274;12.292;2023-04-24T08:10:38;12.00;99.90
1800;DHT22;919;48.274;12.292;2023-04-24T08:13:05;12.10;99.90
1800;DHT22;919;48.274;12.292;2023-04-24T08:15:33;12.20;99.90
1800;DHT22;919;48.274;12.292;2023-04-24T08:18:00;12.40;99.90
1800;DHT22;919;48.274;12.292;2023-04-24T08:20:27;12.50;99.90
1800;DHT22;919;48.274;12.292;2023-04-24T08:22:53;12.70;99.90
1800;DHT22;919;48.274;12.292;2023-04-24T08:25:21;12.80;99.90
1800;DHT22;919;48.274;12.292;2023-04-24T08:27:50;12.90;99.90
1800;DHT22;919;48.274;12.292;2023-04-24T08:30:16;13.00;99.90
1800;DHT22;919;48.274;12.292;2023-04-24T08:32:44;13.20;99.90
1800;DHT22;919;48.274;12.292;2023-04-24T08:35:11;13.30;99.90
1800;DHT22;919;48.274;12.292;2023-04-24T08:37:38;13.40;99.90
1800;DHT22;919;48.274;12.292;2023-04-24T08:40:08;13.20;99.90
1800;DHT22;919;48.274;12.292;2023-04-24T08:42:37;13.20;99.90
1800;DHT22;919;48.274;12.292;2023-04-24T08:45:04;13.20;99.90
1800;DHT22;919;48.274;12.292;2023-04-24T08:47:33;13.00;99.90
1800;DHT22;919;48.274;12.292;2023-04-24T08:50:02;13.00;99.90
1800;DHT22;919;48.274;12.292;2023-04-24T08:52:32;13.10;99.90
1800;DHT22;919;48.274;12.292;2023-04-24T08:55:00;12.90;99.90
1800;DHT22;919;48.274;12.292;2023-04-24T08:57:27;12.90;99.90
1800;DHT22;919;48.274;12.292;2023-04-24T08:59:54;13.00;99.90
1800;DHT22;919;48.274;12.292;2023-04-24T09:02:22;13.00;99.90
1800;DHT22;919;48.274;12.292;2023-04-24T09:04:49;13.30;99.90
1800;DHT22;919;48.274;12.292;2023-04-24T09:07:19;13.40;99.90
1800;DHT22;919;48.274;12.292;2023-04-24T09:09:46;13.40;99.90
1800;DHT22;919;48.274;12.292;2023-04-24T09:12:14;13.30;99.90
1800;DHT22;919;48.274;12.292;2023-04-24T09:14:40;13.30;99.90
1800;DHT22;919;48.274;12.292;2023-04-24T09:17:10;13.20;99.90
1800;DHT22;919;48.274;12.292;2023-04-24T09:19:37;13.10;99.90
1800;DHT22;919;48.274;12.292;2023-04-24T09:22:05;13.00;99.90
1800;DHT22;919;48.274;12.292;2023-04-24T09:24:34;13.00;99.90
1800;DHT22;919;48.274;12.292;2023-04-24T09:27:01;13.20;99.90
1800;DHT22;919;48.274;12.292;2023-04-24T09:29:28;13.10;99.90
1800;DHT22;919;48.274;12.292;2023-04-24T09:31:55;13.00;99.90
1800;DHT22;919;48.274;12.292;2023-04-24T09:34:23;12.90;99.90
1800;DHT22;919;48.274;12.292;2023-04-24T09:36:50;12.70;99.90
1800;DHT22;919;48.274;12.292;2023-04-24T09:39:18;12.50;99.90
1800;DHT22;919;48.274;12.292;2023-04-24T09:41:48;12.30;99.90
1800;DHT22;919;48.274;12.292;2023-04-24T09:44:17;12.10;99.90
1800;DHT22;919;48.274;12.292;2023-04-24T09:46:49;12.00;99.90
1800;DHT22;919;48.274;12.292;2023-04-24T09:49:16;11.90;99.90
1800;DHT22;919;48.274;12.292;2023-04-24T09:51:46;11.80;99.90
1800;DHT22;919;48.274;12.292;2023-04-24T09:54:14;11.80;99.90
1800;DHT22;919;48.274;12.292;2023-04-24T09:56:43;11.90;99.90
1800;DHT22;919;48.274;12.292;2023-04-24T09:59:13;12.00;99.90
1800;DHT22;919;48.274;12.292;2023-04-24T10:01:40;12.20;99.90
1800;DHT22;919;48.274;12.292;2023-04-24T10:04:16;12.30;99.90
1800;DHT22;919;48.274;12.292;2023-04-24T10:06:44;12.30;99.90
1800;DHT22;919;48.274;12.292;2023-04-24T10:09:11;12.50;99.90
1800;DHT22;919;48.274;12.292;2023-04-24T10:14:09;12.30;99.90
1800;DHT22;919;48.274;12.292;2023-04-24T10:16:39;12.30;99.90
1800;DHT22;919;48.274;12.292;2023-04-24T10:19:06;12.40;99.90
1800;DHT22;919;48.274;12.292;2023-04-24T10:21:34;12.80;99.90
1800;DHT22;919;48.274;12.292;2023-04-24T10:24:00;13.00;99.90
1800;DHT22;919;48.274;12.292;2023-04-24T10:26:29;13.20;99.90
1800;DHT22;919;48.274;12.292;2023-04-24T10:28:57;13.30;99.90
1800;DHT22;919;48.274;12.292;2023-04-24T10:31:24;13.20;99.90
1800;DHT22;919;48.274;12.292;2023-04-24T10:33:53;13.50;99.90
1800;DHT22;919;48.274;12.292;2023-04-24T10:36:22;13.70;99.90
1800;DHT22;919;48.274;12.292;2023-04-24T10:38:49;14.10;99.90
1800;DHT22;919;48.274;12.292;2023-04-24T10:41:17;14.30;99.90
1800;DHT22;919;48.274;12.292;2023-04-24T10:43:46;14.50;99.90
1800;DHT22;919;48.274;12.292;2023-04-24T10:46:19;14.50;99.90
1800;DHT22;919;48.274;12.292;2023-04-24T10:48:53;14.80;99.90
1800;DHT22;919;48.274;12.292;2023-04-24T10:51:22;14.80;99.90
1800;DHT22;919;48.274;12.292;2023-04-24T10:53:50;14.60;99.90
1800;DHT22;919;48.274;12.292;2023-04-24T10:56:17;14.40;99.90
1800;DHT22;919;48.274;12.292;2023-04-24T10:58:45;14.60;99.90
1800;DHT22;919;48.274;12.292;2023-04-24T11:01:24;14.80;99.90
1800;DHT22;919;48.274;12.292;2023-04-24T11:03:55;14.70;99.90
1800;DHT22;919;48.274;12.292;2023-04-24T11:06:28;14.80;99.90
1800;DHT22;919;48.274;12.292;2023-04-24T11:09:02;14.50;99.90
1800;DHT22;919;48.274;12.292;2023-04-24T11:11:30;14.20;99.90
1800;DHT22;919;48.274;12.292;2023-04-24T11:14:09;14.20;99.90
1800;DHT22;919;48.274;12.292;2023-04-24T11:16:40;13.90;99.90
1800;DHT22;919;48.274;12.292;2023-04-24T11:19:17;14.00;99.90
1800;DHT22;919;48.274;12.292;2023-04-24T11:21:46;14.00;99.90
1800;DHT22;919;48.274;12.292;2023-04-24T11:24:27;14.00;99.90
1800;DHT22;919;48.274;12.292;2023-04-24T11:26:55;14.20;99.90
1800;DHT22;919;48.274;12.292;2023-04-24T11:29:38;14.30;99.90
1800;DHT22;919;48.274;12.292;2023-04-24T11:32:24;14.30;99.90
1800;DHT22;919;48.274;12.292;2023-04-24T11:34:54;14.40;99.90
1800;DHT22;919;48.274;12.292;2023-04-24T11:37:22;14.70;99.90
1800;DHT22;919;48.274;12.292;2023-04-24T11:39:51;14.80;99.90
1800;DHT22;919;48.274;12.292;2023-04-24T11:42:19;15.10;99.90
1800;DHT22;919;48.274;12.292;2023-04-24T11:44:46;14.90;99.90
1800;DHT22;919;48.274;12.292;2023-04-24T11:47:14;14.60;99.90
1800;DHT22;919;48.274;12.292;2023-04-24T11:49:40;14.30;99.90
1800;DHT22;919;48.274;12.292;2023-04-24T11:52:09;14.10;99.90
1800;DHT22;919;48.274;12.292;2023-04-24T11:54:36;13.90;99.90
1800;DHT22;919;48.274;12.292;2023-04-24T11:57:04;13.60;99.90
1800;DHT22;919;48.274;12.292;2023-04-24T11:59:35;13.20;99.90
1800;DHT22;919;48.274;12.292;2023-04-24T12:02:03;12.30;99.90
1800;DHT22;919;48.274;12.292;2023-04-24T12:04:38;11.70;99.90
1800;DHT22;919;48.274;12.292;2023-04-24T12:07:05;11.50;99.90
1800;DHT22;919;48.274;12.292;2023-04-24T12:09:46;11.50;99.90
1800;DHT22;919;48.274;12.292;2023-04-24T12:12:14;11.50;99.90
1800;DHT22;919;48.274;12.292;2023-04-24T12:14:48;11.60;99.90
1800;DHT22;919;48.274;12.292;2023-04-24T12:17:16;11.90;99.90
1800;DHT22;919;48.274;12.292;2023-04-24T12:19:46;12.30;99.90
1800;DHT22;919;48.274;12.292;2023-04-24T12:22:14;12.70;99.90
1800;DHT22;919;48.274;12.292;2023-04-24T12:24:58;13.10;99.90
1800;DHT22;919;48.274;12.292;2023-04-24T12:27:26;13.30;99.90
1800;DHT22;919;48.274;12.292;2023-04-24T12:29:53;13.60;99.90
1800;DHT22;919;48.274;12.292;2023-04-24T12:32:20;13.60;99.90
1800;DHT22;919;48.274;12.292;2023-04-24T12:34:47;13.50;99.90
1800;DHT22;919;48.274;12.292;2023-04-24T12:37:13;13.50;99.90
1800;DHT22;919;48.274;12.292;2023-04-24T12:39:46;13.50;99.90
1800;DHT22;919;48.274;12.292;2023-04-24T12:42:27;13.40;99.90
1800;DHT22;919;48.274;12.292;2023-04-24T12:44:57;13.30;99.90
1800;DHT22;919;48.274;12.292;2023-04-24T12:47:25;13.30;99.90
1800;DHT22;919;48.274;12.292;2023-04-24T12:49:52;13.50;99.90
1800;DHT22;919;48.274;12.292;2023-04-24T12:52:20;13.70;99.90
1800;DHT22;919;48.274;12.292;2023-04-24T12:54:47;14.00;99.90
1800;DHT22;919;48.274;12.292;2023-04-24T12:57:14;14.20;99.90
1800;DHT22;919;48.274;12.292;2023-04-24T12:59:42;14.40;99.90
1800;DHT22;919;48.274;12.292;2023-04-24T13:02:09;14.50;99.90
1800;DHT22;919;48.274;12.292;2023-04-24T13:04:36;14.70;99.90
1800;DHT22;919;48.274;12.292;2023-04-24T13:07:02;15.00;99.90
1800;DHT22;919;48.274;12.292;2023-04-24T13:09:30;15.20;99.90
1800;DHT22;919;48.274;12.292;2023-04-24T13:11:57;15.30;99.90
1800;DHT22;919;48.274;12.292;2023-04-24T13:14:23;15.40;99.90
1800;DHT22;919;48.274;12.292;2023-04-24T13:16:51;15.60;99.90
1800;DHT22;919;48.274;12.292;2023-04-24T13:19:18;15.80;99.90
1800;DHT22;919;48.274;12.292;2023-04-24T13:21:45;15.90;99.90
1800;DHT22;919;48.274;12.292;2023-04-24T13:24:12;15.90;99.90
1800;DHT22;919;48.274;12.292;2023-04-24T13:26:41;15.60;99.90
1800;DHT22;919;48.274;12.292;2023-04-24T13:29:07;15.50;99.90
1800;DHT22;919;48.274;12.292;2023-04-24T13:31:34;15.40;99.90
1800;DHT22;919;48.274;12.292;2023-04-24T13:34:11;15.30;99.90
1800;DHT22;919;48.274;12.292;2023-04-24T13:36:38;15.10;99.90
1800;DHT22;919;48.274;12.292;2023-04-24T13:39:05;15.10;99.90
1800;DHT22;919;48.274;12.292;2023-04-24T13:41:33;15.10;99.90
1800;DHT22;919;48.274;12.292;2023-04-24T13:44:00;15.10;99.90
1800;DHT22;919;48.274;12.292;2023-04-24T13:46:27;15.10;99.90
1800;DHT22;919;48.274;12.292;2023-04-24T13:48:54;15.10;99.90
1800;DHT22;919;48.274;12.292;2023-04-24T13:51:23;15.00;99.90
1800;DHT22;919;48.274;12.292;2023-04-24T13:53:52;15.00;99.90
1800;DHT22;919;48.274;12.292;2023-04-24T13:56:19;15.20;99.90
1800;DHT22;919;48.274;12.292;2023-04-24T13:58:46;15.30;99.90
1800;DHT22;919;48.274;12.292;2023-04-24T14:01:14;15.40;99.90
1800;DHT22;919;48.274;12.292;2023-04-24T14:03:42;15.20;99.90
1800;DHT22;919;48.274;12.292;2023-04-24T14:06:09;15.20;99.90
1800;DHT22;919;48.274;12.292;2023-04-24T14:08:37;15.00;99.90
1800;DHT22;919;48.274;12.292;2023-04-24T14:11:04;14.90;99.90
1800;DHT22;919;48.274;12.292;2023-04-24T14:13:31;15.00;99.90
1800;DHT22;919;48.274;12.292;2023-04-24T14:15:58;15.10;99.90
1800;DHT22;919;48.274;12.292;2023-04-24T14:18:25;15.30;99.90
1800;DHT22;919;48.274;12.292;2023-04-24T14:20:52;15.20;99.90
1800;DHT22;919;48.274;12.292;2023-04-24T14:23:19;15.10;99.90
1800;DHT22;919;48.274;12.292;2023-04-24T14:25:47;15.10;99.90
1800;DHT22;919;48.274;12.292;2023-04-24T14:28:16;15.20;99.90
1800;DHT22;919;48.274;12.292;2023-04-24T14:30:43;15.00;99.90
1800;DHT22;919;48.274;12.292;2023-04-24T14:33:09;15.00;99.90
1800;DHT22;919;48.274;12.292;2023-04-24T14:35:37;15.10;99.90
1800;DHT22;919;48.274;12.292;2023-04-24T14:38:04;15.30;99.90
1800;DHT22;919;48.274;12.292;2023-04-24T14:40:30;15.50;99.90
1800;DHT22;919;48.274;12.292;2023-04-24T14:42:59;15.50;99.90
1800;DHT22;919;48.274;12.292;2023-04-24T14:45:26;15.80;99.90
1800;DHT22;919;48.274;12.292;2023-04-24T14:47:53;15.70;99.90
1800;DHT22;919;48.274;12.292;2023-04-24T14:50:20;15.50;99.90
1800;DHT22;919;48.274;12.292;2023-04-24T14:52:47;15.70;99.90
1800;DHT22;919;48.274;12.292;2023-04-24T14:55:14;16.20;99.90
1800;DHT22;919;48.274;12.292;2023-04-24T14:57:41;16.30;99.90
1800;DHT22;919;48.274;12.292;2023-04-24T15:00:11;16.40;99.90
1800;DHT22;919;48.274;12.292;2023-04-24T15:02:37;16.50;99.90
1800;DHT22;919;48.274;12.292;2023-04-24T15:05:07;16.50;99.90
1800;DHT22;919;48.274;12.292;2023-04-24T15:07:34;16.50;99.90
1800;DHT22;919;48.274;12.292;2023-04-24T15:10:02;16.70;99.90
1800;DHT22;919;48.274;12.292;2023-04-24T15:12:29;16.90;99.90
1800;DHT22;919;48.274;12.292;2023-04-24T15:14:55;17.00;99.90
1800;DHT22;919;48.274;12.292;2023-04-24T15:17:25;16.90;99.90
1800;DHT22;919;48.274;12.292;2023-04-24T15:19:53;16.90;99.90
1800;DHT22;919;48.274;12.292;2023-04-24T15:22:20;17.10;99.90
1800;DHT22;919;48.274;12.292;2023-04-24T15:24:46;16.70;99.90
1800;DHT22;919;48.274;12.292;2023-04-24T15:27:13;16.60;99.90
1800;DHT22;919;48.274;12.292;2023-04-24T15:29:40;16.30;99.90
1800;DHT22;919;48.274;12.292;2023-04-24T15:32:07;15.90;99.90
1800;DHT22;919;48.274;12.292;2023-04-24T15:34:35;15.70;99.90
1800;DHT22;919;48.274;12.292;2023-04-24T15:37:01;15.60;99.90
1800;DHT22;919;48.274;12.292;2023-04-24T15:39:28;15.40;99.90
1800;DHT22;919;48.274;12.292;2023-04-24T15:41:55;15.10;99.90
1800;DHT22;919;48.274;12.292;2023-04-24T15:44:22;15.00;99.90
1800;DHT22;919;48.274;12.292;2023-04-24T15:46:49;15.00;99.90
1800;DHT22;919;48.274;12.292;2023-04-24T15:49:17;15.30;99.90
1800;DHT22;919;48.274;12.292;2023-04-24T15:51:45;15.50;99.90
1800;DHT22;919;48.274;12.292;2023-04-24T15:54:12;15.40;99.90
1800;DHT22;919;48.274;12.292;2023-04-24T15:56:38;15.50;99.90
1800;DHT22;919;48.274;12.292;2023-04-24T15:59:05;15.40;99.90
1800;DHT22;919;48.274;12.292;2023-04-24T16:01:32;15.50;99.90
1800;DHT22;919;48.274;12.292;2023-04-24T16:03:59;15.20;99.90
1800;DHT22;919;48.274;12.292;2023-04-24T16:06:25;15.20;99.90
1800;DHT22;919;48.274;12.292;2023-04-24T16:08:54;15.20;99.90